Time;durP1;ratioP1;P1;durP2;ratioP2;P2;SDS_P1;SDS_P2;PMS_P1;PMS_P2;Temp;Humidity;BMP_temperature;BMP_pressure;BME280_temperature;BME280_humidity;BME280_pressure;Samples;Min_cycle;Max_cycle;Signal;HPM_P1;HPM_P2
2021/11/30 02:39:24;;;;;;;9.52;4.32;;;;;;;3.34;72.72;99814.47;1089029;39;20652;-76
2021/11/30 02:40:27;;;;;;;8.73;4.20;;;;;;;3.22;73.16;99809.06;1088209;46;20031;-77
2021/11/30 02:41:31;;;;;;;8.18;4.38;;;;;;;3.21;73.15;99809.16;1088449;46;20030;-79
2021/11/30 02:42:33;;;;;;;8.82;4.28;;;;;;;3.20;73.34;99818.91;1087820;54;20038;-77
2021/11/30 02:43:58;;;;;;;9.70;4.65;;;;;;;3.18;73.17;99804.09;1087850;54;20082;-77
2021/11/30 02:45:00;;;;;;;6.53;4.20;;;;;;;3.09;73.38;99821.41;1087763;54;20046;-77
2021/11/30 02:46:04;;;;;;;8.75;4.15;;;;;;;3.18;73.22;99809.38;1087733;54;20063;-78
2021/11/30 02:47:07;;;;;;;10.13;4.40;;;;;;;2.97;73.42;99813.34;1087722;54;20034;-80
2021/11/30 02:48:11;;;;;;;7.32;4.22;;;;;;;2.96;73.51;99813.47;1087793;54;20031;-77
2021/11/30 02:49:15;;;;;;;10.38;4.40;;;;;;;2.92;73.57;99811.97;1088183;46;20034;-77
2021/11/30 02:50:19;;;;;;;8.10;4.13;;;;;;;2.92;73.69;99804.91;1087756;54;20035;-78
2021/11/30 02:51:21;;;;;;;9.65;4.88;;;;;;;2.90;73.41;99816.50;1087727;54;20038;-77
2021/11/30 02:52:27;;;;;;;7.55;4.30;;;;;;;3.01;73.15;99808.72;1089312;46;20046;-77
2021/11/30 02:53:29;;;;;;;10.82;4.25;;;;;;;2.95;73.17;99809.97;1087733;54;20054;-77
2021/11/30 02:54:36;;;;;;;8.68;4.20;;;;;;;2.99;72.89;99804.47;1087747;54;20037;-77
2021/11/30 02:55:38;;;;;;;8.93;3.83;;;;;;;2.99;72.87;99807.13;1087774;54;20042;-76
2021/11/30 02:56:44;;;;;;;8.88;4.32;;;;;;;2.94;73.27;99812.72;1087728;54;20042;-76
2021/11/30 02:57:46;;;;;;;6.63;4.13;;;;;;;2.86;73.28;99810.56;1088154;46;20049;-77
2021/11/30 02:58:50;;;;;;;7.22;4.55;;;;;;;2.89;73.52;99818.28;1087700;54;20030;-76
2021/11/30 02:59:54;;;;;;;10.18;4.38;;;;;;;2.88;73.42;99815.75;1089281;46;20038;-77
2021/11/30 03:01:01;;;;;;;7.88;3.95;;;;;;;3.00;73.25;99822.03;1087736;54;20042;-79
2021/11/30 03:02:07;;;;;;;8.57;4.68;;;;;;;2.92;73.12;99820.75;1087731;54;20035;-79
2021/11/30 03:03:11;;;;;;;8.50;4.18;;;;;;;2.97;73.29;99812.50;1087716;54;20030;-76
2021/11/30 03:04:13;;;;;;;10.90;4.50;;;;;;;2.89;73.41;99818.28;1087690;54;20379;-77
2021/11/30 03:05:18;;;;;;;9.70;4.40;;;;;;;2.88;73.39;99819.25;1087649;54;20030;-76
2021/11/30 03:06:19;;;;;;;8.30;3.78;;;;;;;2.83;73.37;99820.50;1087639;54;20034;-77
2021/11/30 03:07:25;;;;;;;8.77;4.28;;;;;;;2.86;73.40;99815.00;1087677;54;20033;-77
2021/11/30 03:08:27;;;;;;;8.02;4.25;;;;;;;2.88;73.34;99819.25;1087701;54;20038;-77
2021/11/30 03:09:32;;;;;;;14.05;5.13;;;;;;;2.89;73.17;99809.50;1087624;54;20026;-77
2021/11/30 03:10:38;;;;;;;7.70;4.35;;;;;;;2.85;73.09;99808.88;1087597;54;20054;-76
2021/11/30 03:11:40;;;;;;;7.18;3.65;;;;;;;2.87;73.25;99812.25;1089250;39;20641;-78
2021/11/30 03:12:46;;;;;;;10.77;4.00;;;;;;;2.93;73.07;99813.66;1087780;54;20094;-77
2021/11/30 03:13:47;;;;;;;8.75;4.20;;;;;;;2.83;72.96;99807.28;1087777;54;20788;-77
2021/11/30 03:14:52;;;;;;;13.13;5.10;;;;;;;2.82;72.89;99811.72;1087709;54;20030;-77
2021/11/30 03:15:54;;;;;;;8.98;4.97;;;;;;;2.79;73.13;99810.13;1087690;54;20035;-76
2021/11/30 03:16:58;;;;;;;9.35;4.00;;;;;;;2.76;73.22;99810.34;1087693;54;20042;-79
2021/11/30 03:18:03;;;;;;;9.55;5.05;;;;;;;2.86;73.30;99815.84;1089317;46;20065;-78
2021/11/30 03:19:05;;;;;;;8.35;3.95;;;;;;;2.87;73.21;99814.06;1087760;46;20065;-79
2021/11/30 03:20:10;;;;;;;7.50;3.90;;;;;;;2.84;73.35;99801.88;1087680;54;20026;-79
2021/11/30 03:21:12;;;;;;;10.90;3.70;;;;;;;2.82;73.74;99811.72;1088946;46;20038;-78
2021/11/30 03:22:16;;;;;;;9.23;4.32;;;;;;;2.85;73.40;99808.88;1087710;54;20107;-78
2021/11/30 03:23:17;;;;;;;7.43;3.53;;;;;;;2.76;73.34;99804.19;1087693;54;20039;-79
2021/11/30 03:24:21;;;;;;;9.25;4.30;;;;;;;2.81;73.19;99796.84;1087693;54;20035;-78
2021/11/30 03:25:23;;;;;;;8.30;4.00;;;;;;;2.84;73.19;99798.41;1087714;54;20741;-78
2021/11/30 03:26:30;;;;;;;7.85;4.35;;;;;;;2.80;73.50;99806.53;1087553;54;20034;-79
2021/11/30 03:27:31;;;;;;;8.32;3.97;;;;;;;2.75;73.24;99800.72;1087732;54;20054;-78
2021/11/30 03:28:35;;;;;;;6.78;3.60;;;;;;;2.73;73.34;99797.31;1087651;54;20035;-79
2021/11/30 03:29:37;;;;;;;7.57;4.05;;;;;;;2.80;73.40;99801.25;1087687;54;20026;-78
2021/11/30 03:30:52;;;;;;;6.72;3.50;;;;;;;2.76;73.38;99807.69;1087599;54;20038;-78
2021/11/30 03:32:02;;;;;;;7.40;4.18;;;;;;;2.84;73.34;99803.69;1087735;54;20070;-78
2021/11/30 03:34:24;;;;;;;7.93;4.10;;;;;;;2.80;73.09;99788.03;1087651;54;20038;-78
2021/11/30 03:35:26;;;;;;;8.07;4.25;;;;;;;2.86;73.13;99789.44;1087675;54;20027;-79
2021/11/30 03:36:32;;;;;;;9.40;3.78;;;;;;;2.94;72.84;99795.06;1087659;54;20031;-78
2021/11/30 03:37:34;;;;;;;8.55;3.72;;;;;;;2.84;73.01;99801.88;1087409;46;22901;-81
2021/11/30 03:38:38;;;;;;;7.50;4.15;;;;;;;2.92;73.06;99798.75;1087538;54;20038;-78
2021/11/30 03:39:39;;;;;;;6.57;3.63;;;;;;;2.88;72.68;99787.56;1089288;39;20210;-78
2021/11/30 03:40:44;;;;;;;9.00;3.60;;;;;;;2.99;72.70;99788.63;1087701;54;20150;-78
2021/11/30 03:41:52;;;;;;;9.88;4.13;;;;;;;2.92;72.73;99778.50;1088459;46;20074;-79
2021/11/30 03:42:53;;;;;;;10.85;3.95;;;;;;;2.80;73.00;99777.50;1087616;54;20034;-79
2021/11/30 03:43:57;;;;;;;6.85;3.50;;;;;;;2.90;72.74;99764.53;1087681;54;20031;-78
2021/11/30 03:44:59;;;;;;;6.55;4.00;;;;;;;2.85;72.82;99777.19;1087670;54;20038;-78
2021/11/30 03:46:03;;;;;;;6.85;4.28;;;;;;;2.86;72.50;99768.31;1087595;54;20046;-78
2021/11/30 03:47:05;;;;;;;8.70;4.63;;;;;;;2.84;72.88;99766.72;1087676;54;20034;-78
2021/11/30 03:48:09;;;;;;;25.23;5.28;;;;;;;2.83;73.09;99752.69;1088800;39;21187;-78
2021/11/30 03:49:12;;;;;;;6.22;3.83;;;;;;;2.76;72.70;99756.66;1087647;54;20030;-77
2021/11/30 03:50:16;;;;;;;8.32;4.28;;;;;;;2.84;72.71;99749.09;1088717;39;20706;-78
2021/11/30 03:51:18;;;;;;;6.38;3.78;;;;;;;2.83;72.88;99752.69;1087700;54;20065;-79
2021/11/30 03:52:22;;;;;;;12.27;4.05;;;;;;;2.84;72.82;99756.16;1087633;54;20031;-78
2021/11/30 03:53:24;;;;;;;9.93;3.88;;;;;;;2.74;72.94;99748.03;1087672;54;20023;-77
2021/11/30 03:54:30;;;;;;;8.77;3.83;;;;;;;2.79;72.91;99756.47;1087665;54;20033;-78
2021/11/30 03:55:32;;;;;;;7.65;3.88;;;;;;;2.79;73.00;99761.75;1087760;54;20022;-77
2021/11/30 03:56:37;;;;;;;8.40;3.70;;;;;;;2.79;72.80;99756.47;1087637;54;20769;-78
2021/11/30 03:57:43;;;;;;;8.93;4.22;;;;;;;2.89;72.66;99749.63;1087586;54;20064;-79
2021/11/30 03:58:45;;;;;;;7.90;4.28;;;;;;;2.91;72.76;99757.44;1087580;54;20038;-80
2021/11/30 03:59:49;;;;;;;7.45;3.85;;;;;;;2.88;72.59;99757.69;1087666;54;20030;-78
2021/11/30 04:00:51;;;;;;;8.52;3.95;;;;;;;2.80;72.76;99750.25;1089139;39;20210;-77
2021/11/30 04:01:55;;;;;;;8.43;4.20;;;;;;;2.81;72.72;99759.88;1087578;54;20033;-77
2021/11/30 04:02:57;;;;;;;9.23;4.15;;;;;;;2.83;72.66;99755.34;1087598;54;20054;-77
2021/11/30 04:04:03;;;;;;;7.75;3.88;;;;;;;2.92;72.87;99757.38;1087630;54;20041;-77
2021/11/30 04:05:09;;;;;;;6.93;3.67;;;;;;;2.83;72.93;99750.06;1088519;46;20808;-77
2021/11/30 04:06:11;;;;;;;8.05;3.83;;;;;;;2.93;72.79;99745.81;1087587;54;20061;-77
2021/11/30 04:07:16;;;;;;;5.38;3.63;;;;;;;2.97;72.73;99757.06;1087745;54;20102;-78
2021/11/30 04:08:17;;;;;;;7.53;5.20;;;;;;;2.94;72.71;99760.72;1087584;54;20034;-78
2021/11/30 04:09:22;;;;;;;9.32;4.78;;;;;;;3.01;72.80;99755.06;1087657;54;20034;-77
2021/11/30 04:10:26;;;;;;;9.23;3.95;;;;;;;2.94;72.73;99759.88;1087631;54;20069;-78
2021/11/30 04:11:31;;;;;;;8.18;3.97;;;;;;;2.98;72.39;99750.78;1088906;39;21513;-78
2021/11/30 04:12:33;;;;;;;7.13;3.80;;;;;;;2.86;72.29;99749.84;1087730;54;20039;-79
2021/11/30 04:13:40;;;;;;;6.32;3.20;;;;;;;2.93;72.40;99748.47;1089337;39;20745;-79
2021/11/30 04:14:41;;;;;;;7.68;3.55;;;;;;;2.92;72.47;99746.81;1089308;39;20191;-78
2021/11/30 04:15:45;;;;;;;8.63;3.85;;;;;;;2.92;72.68;99748.56;1087607;54;20086;-78
2021/11/30 04:16:47;;;;;;;9.55;5.10;;;;;;;2.90;72.58;99743.41;1087621;54;20057;-77
2021/11/30 04:17:51;;;;;;;9.90;4.18;;;;;;;2.89;72.67;99739.06;1087685;54;20025;-77
2021/11/30 04:18:53;;;;;;;6.10;3.70;;;;;;;2.88;72.82;99737.38;1087578;54;20042;-77
2021/11/30 04:19:57;;;;;;;9.75;3.50;;;;;;;3.00;72.68;99748.06;1087782;54;20057;-78
2021/11/30 04:20:58;;;;;;;5.32;3.20;;;;;;;3.13;72.17;99743.63;1087585;54;20046;-78
2021/11/30 04:22:05;;;;;;;7.60;3.72;;;;;;;3.02;72.31;99744.38;1087638;54;20034;-79
2021/11/30 04:23:06;;;;;;;8.85;3.63;;;;;;;2.95;71.90;99738.66;1089694;31;20815;-79
2021/11/30 04:24:10;;;;;;;9.70;3.72;;;;;;;2.97;72.07;99733.28;1087674;54;20126;-78
2021/11/30 04:25:12;;;;;;;6.70;3.53;;;;;;;3.05;71.93;99732.75;1087540;54;20062;-78
2021/11/30 04:26:16;;;;;;;10.48;4.20;;;;;;;2.95;72.23;99740.47;1090581;31;20759;-78
2021/11/30 04:27:18;;;;;;;6.65;3.83;;;;;;;2.99;72.39;99735.81;1087582;54;20061;-77
2021/11/30 04:28:23;;;;;;;6.70;3.30;;;;;;;3.07;72.19;99733.50;1087597;54;20773;-78
2021/11/30 04:29:27;;;;;;;9.57;3.35;;;;;;;3.04;71.99;99738.97;1091731;39;20214;-77
2021/11/30 04:30:31;;;;;;;10.68;3.63;;;;;;;2.93;72.04;99734.44;1087644;54;20694;-78
2021/11/30 04:31:34;;;;;;;10.68;3.60;;;;;;;2.92;72.18;99741.53;1087521;54;20077;-77
2021/11/30 04:32:38;;;;;;;9.70;3.42;;;;;;;2.93;72.38;99740.53;1087514;54;20054;-77
2021/11/30 04:33:40;;;;;;;7.78;3.50;;;;;;;2.93;72.29;99737.91;1087633;54;20046;-78
2021/11/30 04:34:44;;;;;;;8.77;3.03;;;;;;;2.98;71.98;99740.22;1087571;54;20083;-77
2021/11/30 04:35:46;;;;;;;7.97;3.38;;;;;;;2.91;72.05;99739.81;1087541;54;20066;-77
2021/11/30 04:36:50;;;;;;;6.70;2.80;;;;;;;3.02;72.13;99732.97;1087562;54;20034;-77
2021/11/30 04:37:51;;;;;;;8.88;3.85;;;;;;;2.97;71.99;99734.13;1087573;54;20089;-77
2021/11/30 04:38:56;;;;;;;5.95;3.33;;;;;;;3.00;71.97;99740.16;1087106;54;20026;-80
2021/11/30 04:39:58;;;;;;;7.30;3.53;;;;;;;3.01;72.17;99734.75;1090581;39;20700;-78
2021/11/30 04:41:03;;;;;;;10.52;3.30;;;;;;;3.03;72.08;99735.50;1087530;54;20106;-77
2021/11/30 04:42:05;;;;;;;8.10;3.30;;;;;;;3.06;72.18;99737.94;1087451;54;20034;-77
2021/11/30 04:43:09;;;;;;;7.47;3.33;;;;;;;2.99;72.34;99725.25;1089528;39;20687;-78
2021/11/30 04:44:11;;;;;;;9.00;3.60;;;;;;;3.04;72.35;99731.06;1087274;54;20036;-77
2021/11/30 04:45:24;;;;;;;9.98;3.42;;;;;;;3.00;72.36;99721.66;1087243;54;20050;-77
2021/11/30 04:46:27;;;;;;;7.28;3.55;;;;;;;3.05;72.30;99728.31;1087931;39;20682;-78
2021/11/30 04:47:33;;;;;;;9.05;3.20;;;;;;;2.96;72.41;99729.78;1087444;54;20035;-77
2021/11/30 04:48:35;;;;;;;9.40;2.95;;;;;;;2.95;72.86;99730.72;1087482;54;20749;-78
2021/11/30 04:49:53;;;;;;;7.88;3.40;;;;;;;2.89;72.80;99714.44;1088637;39;20676;-77
2021/11/30 04:50:57;;;;;;;6.22;3.05;;;;;;;2.89;73.25;99719.72;1087569;54;20040;-77
2021/11/30 04:52:01;;;;;;;8.45;3.60;;;;;;;2.99;73.16;99714.69;1087569;54;20035;-77
2021/11/30 04:53:05;;;;;;;6.13;3.10;;;;;;;2.89;73.42;99719.72;1087594;54;20034;-77
2021/11/30 04:54:09;;;;;;;8.23;3.75;;;;;;;2.85;73.53;99716.44;1087522;54;20046;-77
2021/11/30 04:55:14;;;;;;;6.80;3.10;;;;;;;2.85;73.84;99713.81;1087590;54;20112;-77
2021/11/30 04:56:16;;;;;;;7.72;2.88;;;;;;;2.86;73.99;99715.50;1087547;54;20035;-79
2021/11/30 04:57:20;;;;;;;8.85;2.97;;;;;;;2.74;74.40;99711.06;1087624;54;20057;-78
2021/11/30 04:58:22;;;;;;;8.43;3.08;;;;;;;2.82;74.28;99714.03;1087487;54;20030;-78
2021/11/30 04:59:26;;;;;;;7.65;3.10;;;;;;;2.76;74.61;99709.16;1087521;54;20035;-77
2021/11/30 05:00:31;;;;;;;9.55;4.32;;;;;;;2.71;75.13;99703.34;1087629;54;20057;-77
2021/11/30 05:01:35;;;;;;;7.20;3.03;;;;;;;2.64;75.30;99709.06;1087540;54;20706;-78
2021/11/30 05:02:37;;;;;;;7.20;2.88;;;;;;;2.62;75.66;99713.56;1087423;54;20030;-77
2021/11/30 05:03:42;;;;;;;8.15;3.00;;;;;;;2.66;75.86;99708.94;1089757;39;20648;-78
2021/11/30 05:04:47;;;;;;;6.65;2.80;;;;;;;2.67;75.84;99715.06;1087593;54;20705;-77
2021/11/30 05:05:48;;;;;;;9.07;3.60;;;;;;;2.58;76.25;99717.34;1087561;54;20761;-76
2021/11/30 05:06:53;;;;;;;5.78;2.97;;;;;;;2.57;76.48;99718.28;1087599;54;20034;-77
2021/11/30 05:07:54;;;;;;;10.07;3.20;;;;;;;2.58;76.60;99722.63;1087570;54;20031;-77
2021/11/30 05:09:02;;;;;;;7.28;2.92;;;;;;;2.55;77.10;99717.53;1087506;54;20037;-77
2021/11/30 05:10:04;;;;;;;6.53;3.38;;;;;;;2.47;77.64;99725.13;1087455;54;20781;-77
2021/11/30 05:11:08;;;;;;;6.57;2.92;;;;;;;2.44;77.79;99720.91;1087506;54;20090;-77
2021/11/30 05:12:10;;;;;;;7.20;3.15;;;;;;;2.37;78.37;99714.34;1087486;54;20118;-77
2021/11/30 05:13:14;;;;;;;8.10;3.30;;;;;;;2.36;78.54;99706.53;1087570;54;20030;-77
2021/11/30 05:14:15;;;;;;;6.43;2.90;;;;;;;2.28;79.04;99713.13;1087490;54;20037;-76
2021/11/30 05:15:20;;;;;;;6.88;3.17;;;;;;;2.28;78.98;99715.78;1087621;54;20049;-77
2021/11/30 05:16:24;;;;;;;5.82;2.63;;;;;;;2.32;79.11;99711.13;1087449;54;20082;-77
2021/11/30 05:17:28;;;;;;;6.68;3.15;;;;;;;2.23;79.51;99709.09;1087564;54;20054;-76
2021/11/30 05:18:30;;;;;;;7.10;3.20;;;;;;;2.18;79.87;99709.41;1087495;54;20034;-76
2021/11/30 05:19:34;;;;;;;6.15;3.28;;;;;;;2.18;79.93;99714.69;1087601;54;20093;-76
2021/11/30 05:20:35;;;;;;;6.88;3.03;;;;;;;2.18;80.25;99705.00;1087506;54;20038;-76
2021/11/30 05:21:39;;;;;;;6.43;3.15;;;;;;;2.14;80.42;99708.75;1087448;54;20094;-76
2021/11/30 05:22:41;;;;;;;4.82;2.55;;;;;;;2.13;80.55;99708.88;1087444;54;20065;-76
2021/11/30 05:23:45;;;;;;;6.57;2.75;;;;;;;2.08;80.76;99703.88;1087528;54;20068;-76
2021/11/30 05:24:47;;;;;;;5.88;2.90;;;;;;;2.02;81.02;99714.84;1088438;46;20061;-76
2021/11/30 05:25:51;;;;;;;6.63;3.30;;;;;;;2.05;80.90;99716.44;1087509;54;20030;-78
2021/11/30 05:26:54;;;;;;;5.20;2.67;;;;;;;2.09;81.03;99717.91;1087501;54;20039;-76
2021/11/30 05:27:58;;;;;;;7.07;3.42;;;;;;;1.83;81.84;99720.41;1087484;54;20026;-79
2021/11/30 05:29:02;;;;;;;6.95;2.85;;;;;;;1.82;82.14;99710.81;1087314;54;20034;-77
2021/11/30 05:30:05;;;;;;;6.85;3.05;;;;;;;1.88;81.79;99713.09;1087343;54;20037;-76
2021/11/30 05:31:10;;;;;;;9.73;3.33;;;;;;;1.76;82.39;99721.75;1087219;54;20077;-76
2021/11/30 05:32:14;;;;;;;7.15;3.05;;;;;;;1.79;82.56;99722.41;1087392;54;20042;-76
2021/11/30 05:33:18;;;;;;;6.95;3.80;;;;;;;1.85;82.53;99697.47;1087439;54;20030;-76
2021/11/30 05:34:19;;;;;;;6.03;3.10;;;;;;;1.70;82.81;99712.44;1087357;54;20065;-76
2021/11/30 05:35:24;;;;;;;11.00;3.28;;;;;;;1.64;83.41;99711.03;1087173;54;20074;-75
2021/11/30 05:36:26;;;;;;;5.70;2.78;;;;;;;1.56;83.64;99700.97;1087301;39;20586;-76
2021/11/30 05:37:30;;;;;;;7.38;2.80;;;;;;;1.60;83.90;99708.69;1087242;54;20043;-75
2021/11/30 05:38:33;;;;;;;9.25;3.50;;;;;;;1.60;83.89;99711.31;1086986;54;20979;-76
2021/11/30 05:39:37;;;;;;;6.28;4.05;;;;;;;1.58;84.00;99705.28;1086592;54;20038;-75
2021/11/30 05:40:42;;;;;;;8.48;3.38;;;;;;;1.54;84.28;99699.38;1087492;46;20061;-76
2021/11/30 05:41:44;;;;;;;7.47;3.03;;;;;;;1.53;84.27;99705.59;1087140;54;20130;-76
2021/11/30 05:42:48;;;;;;;6.03;3.00;;;;;;;1.65;83.76;99701.34;1086817;54;20043;-76
2021/11/30 05:43:49;;;;;;;6.10;3.08;;;;;;;1.57;84.24;99699.19;1086983;54;20061;-76
2021/11/30 05:44:54;;;;;;;5.85;3.08;;;;;;;1.61;83.99;99698.03;1086800;54;20043;-75
2021/11/30 05:45:58;;;;;;;8.90;3.20;;;;;;;1.71;83.85;99699.16;1087570;39;20686;-77
2021/11/30 05:46:59;;;;;;;6.75;2.72;;;;;;;1.67;84.11;99710.84;1086679;54;20042;-75
2021/11/30 05:48:07;;;;;;;6.07;3.03;;;;;;;1.70;84.16;99701.91;1086668;54;20042;-76
2021/11/30 05:49:09;;;;;;;8.25;3.35;;;;;;;1.72;84.24;99702.66;1086575;54;20062;-75
2021/11/30 05:50:13;;;;;;;8.27;2.90;;;;;;;1.66;84.14;99695.13;1086727;54;20097;-76
2021/11/30 05:51:15;;;;;;;6.07;3.03;;;;;;;1.62;84.28;99699.75;1086826;54;20057;-75
2021/11/30 05:52:19;;;;;;;8.82;3.20;;;;;;;1.62;84.46;99686.56;1088552;39;20752;-77
2021/11/30 05:53:21;;;;;;;7.20;3.17;;;;;;;1.63;84.54;99693.53;1086704;54;20091;-75
2021/11/30 05:54:25;;;;;;;7.28;3.20;;;;;;;1.66;84.46;99688.06;1086549;54;20044;-76
2021/11/30 05:55:26;;;;;;;7.25;3.17;;;;;;;1.69;84.44;99684.41;1086646;54;20072;-76
2021/11/30 05:56:31;;;;;;;6.43;3.15;;;;;;;1.63;84.45;99685.63;1086792;54;20026;-76
2021/11/30 05:57:33;;;;;;;8.23;3.10;;;;;;;1.58;84.61;99679.81;1086885;54;20053;-75
2021/11/30 05:58:40;;;;;;;7.45;2.83;;;;;;;1.51;84.84;99683.78;1086680;54;20038;-77
2021/11/30 05:59:43;;;;;;;10.98;3.35;;;;;;;1.59;84.42;99681.50;1087023;47;20683;-75
2021/11/30 06:00:48;;;;;;;7.53;2.97;;;;;;;1.51;84.87;99681.97;1086553;54;20043;-75
2021/11/30 06:01:50;;;;;;;5.32;2.67;;;;;;;1.62;84.59;99681.28;1086976;54;20030;-76
2021/11/30 06:02:59;;;;;;;9.20;3.80;;;;;;;1.60;84.57;99677.06;1086753;39;20472;-76
2021/11/30 06:04:06;;;;;;;6.47;3.28;;;;;;;1.52;84.71;99674.91;1087024;54;20080;-75
2021/11/30 06:05:08;;;;;;;6.30;3.25;;;;;;;1.50;84.95;99674.19;1087114;54;20099;-77
2021/11/30 06:06:12;;;;;;;8.20;3.22;;;;;;;1.47;85.11;99677.00;1087779;39;20463;-76
2021/11/30 06:07:17;;;;;;;5.97;3.20;;;;;;;1.49;84.85;99675.13;1087596;39;20616;-76
2021/11/30 06:08:18;;;;;;;5.63;3.20;;;;;;;1.39;85.35;99665.16;1086861;54;20635;-75
2021/11/30 06:09:22;;;;;;;7.63;3.38;;;;;;;1.28;85.79;99662.34;1086943;54;20026;-76
2021/11/30 06:10:24;;;;;;;6.88;3.42;;;;;;;1.36;85.70;99660.06;1089630;31;20842;-75
2021/11/30 06:11:28;;;;;;;8.65;3.42;;;;;;;1.25;85.82;99662.50;1087086;54;20039;-75
2021/11/30 06:12:30;;;;;;;11.40;3.63;;;;;;;1.24;85.78;99661.69;1087104;54;20038;-76
2021/11/30 06:13:34;;;;;;;6.32;3.28;;;;;;;1.29;86.04;99653.50;1086910;54;20114;-76
2021/11/30 06:14:38;;;;;;;6.55;3.80;;;;;;;1.30;85.82;99659.59;1087033;54;20101;-75
2021/11/30 06:15:40;;;;;;;9.10;3.50;;;;;;;1.25;86.15;99659.88;1086683;54;20659;-75
2021/11/30 06:16:44;;;;;;;9.30;3.38;;;;;;;1.26;86.19;99652.84;1086861;54;20647;-75
2021/11/30 06:17:46;;;;;;;5.97;3.28;;;;;;;1.23;86.20;99656.47;1087047;54;20046;-76
2021/11/30 06:18:50;;;;;;;7.30;3.35;;;;;;;1.18;86.59;99648.88;1086756;54;20041;-75
2021/11/30 06:19:54;;;;;;;8.90;3.63;;;;;;;1.25;86.43;99646.72;1086704;54;20061;-75
2021/11/30 06:20:58;;;;;;;8.27;3.72;;;;;;;1.20;86.34;99647.00;1086596;54;20089;-76
2021/11/30 06:22:03;;;;;;;6.55;3.47;;;;;;;1.27;86.21;99639.56;1086908;54;20702;-76
2021/11/30 06:23:04;;;;;;;10.40;3.80;;;;;;;1.26;86.36;99643.13;1086553;54;20050;-76
2021/11/30 06:24:08;;;;;;;9.38;3.55;;;;;;;1.29;86.44;99636.81;1086653;54;20045;-74
2021/11/30 06:25:10;;;;;;;7.05;3.33;;;;;;;1.33;86.08;99626.00;1087275;54;20380;-75
2021/11/30 06:26:14;;;;;;;5.60;3.75;;;;;;;1.39;85.90;99624.78;1087300;54;20030;-76
2021/11/30 06:27:16;;;;;;;8.35;4.35;;;;;;;1.39;85.96;99630.91;1087431;54;20043;-75
2021/11/30 06:28:20;;;;;;;9.77;5.20;;;;;;;1.44;85.79;99624.47;1086782;54;20038;-75
2021/11/30 06:29:21;;;;;;;7.18;4.55;;;;;;;1.36;85.88;99628.44;1086292;54;20078;-75
2021/11/30 06:30:26;;;;;;;8.00;4.93;;;;;;;1.29;86.23;99631.56;1087257;47;20054;-76
2021/11/30 06:31:28;;;;;;;8.43;4.80;;;;;;;1.23;86.41;99625.75;1086386;54;20046;-76
2021/11/30 06:32:32;;;;;;;7.50;4.63;;;;;;;1.33;86.10;99620.72;1086935;54;20042;-78
2021/11/30 06:33:34;;;;;;;8.68;4.28;;;;;;;1.30;86.41;99620.94;1086658;54;20065;-78
2021/11/30 06:34:38;;;;;;;8.75;4.93;;;;;;;1.16;86.45;99615.69;1086364;54;20050;-77
2021/11/30 06:35:42;;;;;;;9.38;4.20;;;;;;;1.19;86.28;99618.13;1086473;54;20038;-76
2021/11/30 06:36:46;;;;;;;6.85;3.92;;;;;;;1.27;86.43;99622.94;1085988;54;20034;-74
2021/11/30 06:37:47;;;;;;;5.90;3.90;;;;;;;1.34;86.02;99614.53;1086209;54;20054;-75
2021/11/30 06:38:55;;;;;;;8.18;4.32;;;;;;;1.23;86.41;99622.25;1085819;54;20041;-75
2021/11/30 06:39:57;;;;;;;7.35;3.95;;;;;;;1.21;86.61;99618.88;1085882;54;21130;-79
2021/11/30 06:41:01;;;;;;;8.80;3.80;;;;;;;1.17;86.85;99622.63;1087761;47;20026;-76
2021/11/30 06:42:04;;;;;;;6.85;3.65;;;;;;;1.16;87.00;99620.94;1085873;54;20069;-75
2021/11/30 06:43:09;;;;;;;8.48;3.90;;;;;;;1.19;86.90;99611.06;1087021;39;20456;-75
2021/11/30 06:44:13;;;;;;;7.25;3.42;;;;;;;1.22;86.75;99618.78;1085948;39;20321;-75
2021/11/30 06:45:15;;;;;;;6.63;4.00;;;;;;;1.32;86.59;99605.91;1086180;54;20042;-77
2021/11/30 06:46:19;;;;;;;8.40;4.20;;;;;;;1.20;86.82;99614.56;1085605;54;20114;-74
2021/11/30 06:47:21;;;;;;;8.45;4.32;;;;;;;1.34;86.61;99603.16;1086169;54;20034;-77
2021/11/30 06:48:25;;;;;;;8.65;4.32;;;;;;;1.24;86.67;99611.63;1086646;54;20041;-75
2021/11/30 06:49:26;;;;;;;9.73;5.00;;;;;;;1.35;86.58;99610.13;1086550;54;20038;-78
2021/11/30 06:50:30;;;;;;;8.48;5.15;;;;;;;1.35;86.49;99610.13;1086251;54;20044;-75
2021/11/30 06:51:38;;;;;;;9.10;5.57;;;;;;;1.29;86.60;99602.59;1086395;54;20046;-77
2021/11/30 06:52:39;;;;;;;7.65;5.20;;;;;;;1.45;86.21;99600.69;1086439;54;20046;-76
2021/11/30 06:53:43;;;;;;;8.07;5.68;;;;;;;1.32;86.43;99600.63;1086160;54;20050;-79
2021/11/30 06:54:47;;;;;;;10.73;6.32;;;;;;;1.33;86.51;99604.94;1086348;54;20043;-75
2021/11/30 06:55:51;;;;;;;11.50;6.70;;;;;;;1.34;86.79;99592.63;1086379;54;20039;-75
2021/11/30 06:56:53;;;;;;;10.75;6.18;;;;;;;1.30;86.76;99596.38;1086074;54;20050;-76
2021/11/30 06:57:57;;;;;;;8.95;6.40;;;;;;;1.36;86.50;99591.56;1086255;54;20674;-76
2021/11/30 06:58:59;;;;;;;9.32;6.25;;;;;;;1.36;86.36;99591.56;1086208;54;20045;-78
2021/11/30 07:00:05;;;;;;;10.65;7.10;;;;;;;1.33;86.62;99586.50;1086171;54;20115;-76
2021/11/30 07:01:11;;;;;;;9.05;6.55;;;;;;;1.29;86.83;99592.91;1086347;54;20039;-76
2021/11/30 07:02:13;;;;;;;11.65;7.28;;;;;;;1.26;86.71;99590.47;1086403;54;20050;-76
2021/11/30 07:03:20;;;;;;;10.13;6.35;;;;;;;1.33;86.89;99589.13;1086363;54;20614;-77
2021/11/30 07:04:21;;;;;;;10.27;6.30;;;;;;;1.42;86.38;99590.34;1087283;54;20038;-76
2021/11/30 07:05:28;;;;;;;9.43;6.10;;;;;;;1.31;86.71;99590.19;1087403;54;20034;-80
2021/11/30 07:06:37;;;;;;;7.80;6.65;;;;;;;1.26;86.88;99590.47;1087328;54;20027;-80
2021/11/30 07:07:53;;;;;;;8.55;6.60;;;;;;;1.38;86.70;99584.44;1086583;54;20034;-79
2021/11/30 07:08:57;;;;;;;8.32;6.50;;;;;;;1.38;86.23;99591.47;1086455;54;21032;-78
2021/11/30 07:10:11;;;;;;;11.15;6.75;;;;;;;1.39;86.32;99601.94;1086798;54;20034;-80
2021/11/30 07:11:20;;;;;;;9.05;6.75;;;;;;;1.30;86.56;99597.25;1088991;39;20515;-80
2021/11/30 07:12:46;;;;;;;7.57;5.22;;;;;;;1.24;86.95;99605.50;1086556;54;20872;-79
2021/11/30 07:13:51;;;;;;;10.68;4.75;;;;;;;1.22;87.18;99596.88;1086978;54;20058;-79
2021/11/30 07:14:52;;;;;;;6.05;4.25;;;;;;;1.28;86.99;99600.88;1087401;54;20034;-79
2021/11/30 07:15:59;;;;;;;7.53;4.00;;;;;;;1.17;87.52;99596.31;1087264;54;20033;-80
2021/11/30 07:17:03;;;;;;;7.88;4.47;;;;;;;1.20;87.50;99593.50;1088135;31;20595;-79
2021/11/30 07:18:05;;;;;;;6.85;4.68;;;;;;;1.29;87.27;99595.56;1087431;54;20054;-81
2021/11/30 07:19:09;;;;;;;8.38;4.45;;;;;;;1.27;87.00;99592.16;1087362;54;20314;-79
2021/11/30 07:20:11;;;;;;;7.35;4.30;;;;;;;1.31;87.01;99588.41;1087462;54;20038;-79
2021/11/30 07:21:15;;;;;;;9.68;4.03;;;;;;;1.31;86.63;99588.41;1087108;54;20042;-79
2021/11/30 07:22:16;;;;;;;7.05;4.15;;;;;;;1.29;87.00;99597.31;1087339;54;20054;-79
2021/11/30 07:23:24;;;;;;;7.07;3.83;;;;;;;1.30;86.70;99597.25;1087537;54;20034;-80
2021/11/30 07:24:25;;;;;;;6.03;3.70;;;;;;;1.27;86.98;99589.53;1090231;39;20859;-80
2021/11/30 07:25:29;;;;;;;6.93;3.40;;;;;;;1.29;86.78;99600.81;1087387;54;20042;-79
2021/11/30 07:26:34;;;;;;;5.82;3.40;;;;;;;1.23;87.03;99585.38;1087340;54;20042;-82
2021/11/30 07:27:35;;;;;;;8.15;4.55;;;;;;;1.35;87.01;99592.53;1087459;54;20054;-79
2021/11/30 07:28:39;;;;;;;7.80;3.63;;;;;;;1.27;87.14;99594.78;1087294;54;20037;-80
2021/11/30 07:29:41;;;;;;;5.78;3.40;;;;;;;1.35;86.82;99579.34;1087401;54;20042;-79
2021/11/30 07:30:45;;;;;;;8.75;3.72;;;;;;;1.27;87.16;99589.53;1087329;54;20049;-80
2021/11/30 07:31:47;;;;;;;7.25;3.88;;;;;;;1.35;86.71;99581.97;1087176;54;20053;-81
2021/11/30 07:32:51;;;;;;;7.30;3.75;;;;;;;1.29;87.03;99590.28;1088999;31;20657;-79
2021/11/30 07:33:57;;;;;;;6.43;3.10;;;;;;;1.35;86.93;99584.63;1087328;54;20035;-79
2021/11/30 07:34:59;;;;;;;7.05;4.22;;;;;;;1.28;87.20;99587.72;1087492;54;20042;-79
2021/11/30 07:36:04;;;;;;;6.97;4.43;;;;;;;1.28;87.17;99591.22;1087248;54;20022;-81
2021/11/30 07:37:07;;;;;;;12.77;5.78;;;;;;;1.29;87.19;99584.16;1086992;54;20038;-79
2021/11/30 07:38:11;;;;;;;7.25;4.57;;;;;;;1.21;87.26;99592.56;1086424;54;20039;-78
2021/11/30 07:39:17;;;;;;;7.05;3.83;;;;;;;1.21;87.19;99593.38;1086835;54;20046;-79
2021/11/30 07:40:19;;;;;;;5.93;3.53;;;;;;;1.23;87.20;99586.25;1086115;54;20069;-79
2021/11/30 07:41:23;;;;;;;8.80;4.10;;;;;;;1.28;87.35;99596.50;1086429;54;20061;-79
2021/11/30 07:42:29;;;;;;;6.05;3.75;;;;;;;1.27;87.21;99597.44;1086228;54;20062;-77
2021/11/30 07:43:33;;;;;;;5.50;3.53;;;;;;;1.19;87.44;99600.53;1086596;46;20049;-78
2021/11/30 07:44:37;;;;;;;7.95;3.42;;;;;;;1.16;87.51;99594.59;1086661;54;20073;-79